sensor_id;sensor_type;location;lat;lon;timestamp;temperature;humidity
3332;DHT22;1678;50.94845400;5.30809100;2022-11-15T00:01:18;11.30;99.90
3332;DHT22;1678;50.94845400;5.30809100;2022-11-15T00:03:50;11.30;99.90
3332;DHT22;1678;50.94845400;5.30809100;2022-11-15T00:06:19;11.30;99.90
3332;DHT22;1678;50.94845400;5.30809100;2022-11-15T00:08:47;11.40;99.90
3332;DHT22;1678;50.94845400;5.30809100;2022-11-15T00:11:15;11.50;99.90
3332;DHT22;1678;50.94845400;5.30809100;2022-11-15T00:13:43;11.50;99.90
3332;DHT22;1678;50.94845400;5.30809100;2022-11-15T00:16:11;11.50;99.90
3332;DHT22;1678;50.94845400;5.30809100;2022-11-15T00:18:39;11.50;99.90
3332;DHT22;1678;50.94845400;5.30809100;2022-11-15T00:21:18;11.60;99.90
3332;DHT22;1678;50.94845400;5.30809100;2022-11-15T00:23:46;11.60;99.90
3332;DHT22;1678;50.94845400;5.30809100;2022-11-15T00:26:14;11.60;99.90
3332;DHT22;1678;50.94845400;5.30809100;2022-11-15T00:28:43;11.70;99.90
3332;DHT22;1678;50.94845400;5.30809100;2022-11-15T00:31:12;11.70;99.90
3332;DHT22;1678;50.94845400;5.30809100;2022-11-15T00:33:43;11.70;99.90
3332;DHT22;1678;50.94845400;5.30809100;2022-11-15T00:36:11;11.70;99.90
3332;DHT22;1678;50.94845400;5.30809100;2022-11-15T00:38:41;11.70;99.90
3332;DHT22;1678;50.94845400;5.30809100;2022-11-15T00:41:09;11.70;99.90
3332;DHT22;1678;50.94845400;5.30809100;2022-11-15T00:43:37;11.70;99.90
3332;DHT22;1678;50.94845400;5.30809100;2022-11-15T00:46:06;11.70;99.90
3332;DHT22;1678;50.94845400;5.30809100;2022-11-15T00:48:36;11.80;99.90
3332;DHT22;1678;50.94845400;5.30809100;2022-11-15T00:51:04;11.80;99.90
3332;DHT22;1678;50.94845400;5.30809100;2022-11-15T00:53:32;11.80;99.90
3332;DHT22;1678;50.94845400;5.30809100;2022-11-15T00:56:05;11.80;99.90
3332;DHT22;1678;50.94845400;5.30809100;2022-11-15T00:58:34;11.80;99.90
3332;DHT22;1678;50.94845400;5.30809100;2022-11-15T01:01:09;11.90;99.90
3332;DHT22;1678;50.94845400;5.30809100;2022-11-15T01:03:38;11.80;99.90
3332;DHT22;1678;50.94845400;5.30809100;2022-11-15T01:06:08;11.80;99.90
3332;DHT22;1678;50.94845400;5.30809100;2022-11-15T01:08:36;11.80;99.90
3332;DHT22;1678;50.94845400;5.30809100;2022-11-15T01:11:09;11.90;99.90
3332;DHT22;1678;50.94845400;5.30809100;2022-11-15T01:13:38;11.90;99.90
3332;DHT22;1678;50.94845400;5.30809100;2022-11-15T01:16:08;11.90;99.90
3332;DHT22;1678;50.94845400;5.30809100;2022-11-15T01:18:37;11.90;99.90
3332;DHT22;1678;50.94845400;5.30809100;2022-11-15T01:21:06;12.00;99.90
3332;DHT22;1678;50.94845400;5.30809100;2022-11-15T01:23:35;12.00;99.90
3332;DHT22;1678;50.94845400;5.30809100;2022-11-15T01:26:06;12.00;99.90
3332;DHT22;1678;50.94845400;5.30809100;2022-11-15T01:28:36;12.10;99.90
3332;DHT22;1678;50.94845400;5.30809100;2022-11-15T01:31:09;12.00;99.90
3332;DHT22;1678;50.94845400;5.30809100;2022-11-15T01:33:47;12.10;99.90
3332;DHT22;1678;50.94845400;5.30809100;2022-11-15T01:36:17;12.10;99.90
3332;DHT22;1678;50.94845400;5.30809100;2022-11-15T01:38:45;12.10;99.90
3332;DHT22;1678;50.94845400;5.30809100;2022-11-15T01:41:16;12.10;99.90
3332;DHT22;1678;50.94845400;5.30809100;2022-11-15T01:43:46;12.10;99.90
3332;DHT22;1678;50.94845400;5.30809100;2022-11-15T01:46:27;12.20;99.90
3332;DHT22;1678;50.94845400;5.30809100;2022-11-15T01:49:00;12.10;99.90
3332;DHT22;1678;50.94845400;5.30809100;2022-11-15T01:51:30;12.20;99.90
3332;DHT22;1678;50.94845400;5.30809100;2022-11-15T01:54:02;12.20;99.90
3332;DHT22;1678;50.94845400;5.30809100;2022-11-15T01:56:36;12.10;99.90
3332;DHT22;1678;50.94845400;5.30809100;2022-11-15T01:59:06;12.20;99.90
3332;DHT22;1678;50.94845400;5.30809100;2022-11-15T02:01:35;12.20;99.90
3332;DHT22;1678;50.94845400;5.30809100;2022-11-15T02:04:09;12.20;99.90
3332;DHT22;1678;50.94845400;5.30809100;2022-11-15T02:06:38;12.20;99.90
3332;DHT22;1678;50.94845400;5.30809100;2022-11-15T02:09:06;12.30;99.90
3332;DHT22;1678;50.94845400;5.30809100;2022-11-15T02:11:34;12.20;99.90
3332;DHT22;1678;50.94845400;5.30809100;2022-11-15T02:14:03;12.30;99.90
3332;DHT22;1678;50.94845400;5.30809100;2022-11-15T02:16:40;12.30;99.90
3332;DHT22;1678;50.94845400;5.30809100;2022-11-15T02:19:28;12.30;99.90
3332;DHT22;1678;50.94845400;5.30809100;2022-11-15T02:22:07;12.40;99.90
3332;DHT22;1678;50.94845400;5.30809100;2022-11-15T02:24:53;12.40;99.90
3332;DHT22;1678;50.94845400;5.30809100;2022-11-15T02:30:35;12.50;99.90
3332;DHT22;1678;50.94845400;5.30809100;2022-11-15T02:33:14;12.50;99.90
3332;DHT22;1678;50.94845400;5.30809100;2022-11-15T02:35:52;12.50;99.90
3332;DHT22;1678;50.94845400;5.30809100;2022-11-15T02:38:27;12.50;99.90
3332;DHT22;1678;50.94845400;5.30809100;2022-11-15T02:41:00;12.60;99.90
3332;DHT22;1678;50.94845400;5.30809100;2022-11-15T02:43:33;12.50;99.90
3332;DHT22;1678;50.94845400;5.30809100;2022-11-15T02:46:24;12.60;99.90
3332;DHT22;1678;50.94845400;5.30809100;2022-11-15T02:49:14;12.60;99.90
3332;DHT22;1678;50.94845400;5.30809100;2022-11-15T02:51:44;12.60;99.90
3332;DHT22;1678;50.94845400;5.30809100;2022-11-15T02:54:15;12.60;99.90
3332;DHT22;1678;50.94845400;5.30809100;2022-11-15T02:56:45;12.60;99.90
3332;DHT22;1678;50.94845400;5.30809100;2022-11-15T02:59:23;12.60;99.90
3332;DHT22;1678;50.94845400;5.30809100;2022-11-15T03:02:10;12.60;99.90
3332;DHT22;1678;50.94845400;5.30809100;2022-11-15T03:04:44;12.60;99.90
3332;DHT22;1678;50.94845400;5.30809100;2022-11-15T03:07:18;12.60;99.90
3332;DHT22;1678;50.94845400;5.30809100;2022-11-15T03:09:52;12.50;99.90
3332;DHT22;1678;50.94845400;5.30809100;2022-11-15T03:12:27;12.40;99.90
3332;DHT22;1678;50.94845400;5.30809100;2022-11-15T03:15:01;12.40;99.90
3332;DHT22;1678;50.94845400;5.30809100;2022-11-15T03:17:37;12.40;99.90
3332;DHT22;1678;50.94845400;5.30809100;2022-11-15T03:20:07;12.40;99.90
3332;DHT22;1678;50.94845400;5.30809100;2022-11-15T03:22:37;12.40;99.90
3332;DHT22;1678;50.94845400;5.30809100;2022-11-15T03:25:09;12.40;99.90
3332;DHT22;1678;50.94845400;5.30809100;2022-11-15T03:27:41;12.40;99.90
3332;DHT22;1678;50.94845400;5.30809100;2022-11-15T03:30:11;12.30;99.90
3332;DHT22;1678;50.94845400;5.30809100;2022-11-15T03:32:45;12.40;99.90
3332;DHT22;1678;50.94845400;5.30809100;2022-11-15T03:35:18;12.30;99.90
3332;DHT22;1678;50.94845400;5.30809100;2022-11-15T03:37:52;12.30;99.90
3332;DHT22;1678;50.94845400;5.30809100;2022-11-15T03:40:25;12.30;99.90
3332;DHT22;1678;50.94845400;5.30809100;2022-11-15T03:43:00;12.30;99.90
3332;DHT22;1678;50.94845400;5.30809100;2022-11-15T03:45:33;12.30;99.90
3332;DHT22;1678;50.94845400;5.30809100;2022-11-15T03:48:10;12.30;99.90
3332;DHT22;1678;50.94845400;5.30809100;2022-11-15T03:50:39;12.20;99.90
3332;DHT22;1678;50.94845400;5.30809100;2022-11-15T03:53:08;12.20;99.90
3332;DHT22;1678;50.94845400;5.30809100;2022-11-15T03:55:36;12.20;99.90
3332;DHT22;1678;50.94845400;5.30809100;2022-11-15T03:58:04;12.20;99.90
3332;DHT22;1678;50.94845400;5.30809100;2022-11-15T04:00:33;12.20;99.90
3332;DHT22;1678;50.94845400;5.30809100;2022-11-15T04:03:01;12.30;99.90
3332;DHT22;1678;50.94845400;5.30809100;2022-11-15T04:05:30;12.30;99.90
3332;DHT22;1678;50.94845400;5.30809100;2022-11-15T04:07:58;12.20;99.90
3332;DHT22;1678;50.94845400;5.30809100;2022-11-15T04:10:26;12.30;99.90
3332;DHT22;1678;50.94845400;5.30809100;2022-11-15T04:12:54;12.30;99.90
3332;DHT22;1678;50.94845400;5.30809100;2022-11-15T04:15:23;12.30;99.90
3332;DHT22;1678;50.94845400;5.30809100;2022-11-15T04:17:53;12.20;99.90
3332;DHT22;1678;50.94845400;5.30809100;2022-11-15T04:20:23;12.20;99.90
3332;DHT22;1678;50.94845400;5.30809100;2022-11-15T04:23:12;12.10;99.90
3332;DHT22;1678;50.94845400;5.30809100;2022-11-15T04:26:01;12.10;99.90
3332;DHT22;1678;50.94845400;5.30809100;2022-11-15T04:28:29;12.10;99.90
3332;DHT22;1678;50.94845400;5.30809100;2022-11-15T04:30:57;12.00;99.90
3332;DHT22;1678;50.94845400;5.30809100;2022-11-15T04:33:25;12.00;99.90
3332;DHT22;1678;50.94845400;5.30809100;2022-11-15T04:35:53;12.00;99.90
3332;DHT22;1678;50.94845400;5.30809100;2022-11-15T04:38:40;12.00;99.90
3332;DHT22;1678;50.94845400;5.30809100;2022-11-15T04:41:08;12.10;99.90
3332;DHT22;1678;50.94845400;5.30809100;2022-11-15T04:43:36;12.10;99.90
3332;DHT22;1678;50.94845400;5.30809100;2022-11-15T04:46:04;12.10;99.90
3332;DHT22;1678;50.94845400;5.30809100;2022-11-15T04:48:32;12.00;99.90
3332;DHT22;1678;50.94845400;5.30809100;2022-11-15T04:51:00;12.10;99.90
3332;DHT22;1678;50.94845400;5.30809100;2022-11-15T04:53:28;12.10;99.90
3332;DHT22;1678;50.94845400;5.30809100;2022-11-15T04:55:58;12.10;99.90
3332;DHT22;1678;50.94845400;5.30809100;2022-11-15T04:58:26;12.10;99.90
3332;DHT22;1678;50.94845400;5.30809100;2022-11-15T05:00:54;11.80;99.90
3332;DHT22;1678;50.94845400;5.30809100;2022-11-15T05:03:22;11.60;99.90
3332;DHT22;1678;50.94845400;5.30809100;2022-11-15T05:06:08;11.50;99.90
3332;DHT22;1678;50.94845400;5.30809100;2022-11-15T05:08:36;11.40;99.90
3332;DHT22;1678;50.94845400;5.30809100;2022-11-15T05:11:05;11.30;99.90
3332;DHT22;1678;50.94845400;5.30809100;2022-11-15T05:13:33;11.20;99.90
3332;DHT22;1678;50.94845400;5.30809100;2022-11-15T05:16:01;11.20;99.90
3332;DHT22;1678;50.94845400;5.30809100;2022-11-15T05:18:29;11.10;99.90
3332;DHT22;1678;50.94845400;5.30809100;2022-11-15T05:21:03;10.90;99.90
3332;DHT22;1678;50.94845400;5.30809100;2022-11-15T05:23:31;10.90;99.90
3332;DHT22;1678;50.94845400;5.30809100;2022-11-15T05:26:00;10.80;99.90
3332;DHT22;1678;50.94845400;5.30809100;2022-11-15T05:28:36;10.90;99.90
3332;DHT22;1678;50.94845400;5.30809100;2022-11-15T05:31:06;10.80;99.90
3332;DHT22;1678;50.94845400;5.30809100;2022-11-15T05:33:35;10.90;99.90
3332;DHT22;1678;50.94845400;5.30809100;2022-11-15T05:36:09;10.80;99.90
3332;DHT22;1678;50.94845400;5.30809100;2022-11-15T05:38:40;10.80;99.90
3332;DHT22;1678;50.94845400;5.30809100;2022-11-15T05:41:08;10.80;99.90
3332;DHT22;1678;50.94845400;5.30809100;2022-11-15T05:43:39;10.80;99.90
3332;DHT22;1678;50.94845400;5.30809100;2022-11-15T05:46:10;10.80;99.90
3332;DHT22;1678;50.94845400;5.30809100;2022-11-15T05:48:41;10.80;99.90
3332;DHT22;1678;50.94845400;5.30809100;2022-11-15T05:51:13;10.80;99.90
3332;DHT22;1678;50.94845400;5.30809100;2022-11-15T05:53:43;10.80;99.90
3332;DHT22;1678;50.94845400;5.30809100;2022-11-15T05:56:12;10.80;99.90
3332;DHT22;1678;50.94845400;5.30809100;2022-11-15T05:58:43;10.80;99.90
3332;DHT22;1678;50.94845400;5.30809100;2022-11-15T06:01:11;10.80;99.90
3332;DHT22;1678;50.94845400;5.30809100;2022-11-15T06:03:39;10.70;99.90
3332;DHT22;1678;50.94845400;5.30809100;2022-11-15T06:06:07;10.80;99.90
3332;DHT22;1678;50.94845400;5.30809100;2022-11-15T06:08:41;10.70;99.90
3332;DHT22;1678;50.94845400;5.30809100;2022-11-15T06:11:09;10.70;99.90
3332;DHT22;1678;50.94845400;5.30809100;2022-11-15T06:13:37;10.70;99.90
3332;DHT22;1678;50.94845400;5.30809100;2022-11-15T06:16:07;10.80;99.90
3332;DHT22;1678;50.94845400;5.30809100;2022-11-15T06:18:36;10.80;99.90
3332;DHT22;1678;50.94845400;5.30809100;2022-11-15T06:21:04;10.80;99.90
3332;DHT22;1678;50.94845400;5.30809100;2022-11-15T06:23:33;10.70;99.90
3332;DHT22;1678;50.94845400;5.30809100;2022-11-15T06:26:03;10.80;99.90
3332;DHT22;1678;50.94845400;5.30809100;2022-11-15T06:28:32;10.80;99.90
3332;DHT22;1678;50.94845400;5.30809100;2022-11-15T06:31:02;10.80;99.90
3332;DHT22;1678;50.94845400;5.30809100;2022-11-15T06:33:32;10.70;99.90
3332;DHT22;1678;50.94845400;5.30809100;2022-11-15T06:36:01;10.70;99.90
3332;DHT22;1678;50.94845400;5.30809100;2022-11-15T06:38:29;10.60;99.90
3332;DHT22;1678;50.94845400;5.30809100;2022-11-15T06:41:01;10.60;99.90
3332;DHT22;1678;50.94845400;5.30809100;2022-11-15T06:43:30;10.50;99.90
3332;DHT22;1678;50.94845400;5.30809100;2022-11-15T06:45:59;10.50;99.90
3332;DHT22;1678;50.94845400;5.30809100;2022-11-15T06:48:27;10.40;99.90
3332;DHT22;1678;50.94845400;5.30809100;2022-11-15T06:50:59;10.30;99.90
3332;DHT22;1678;50.94845400;5.30809100;2022-11-15T06:53:27;10.30;99.90
3332;DHT22;1678;50.94845400;5.30809100;2022-11-15T06:55:59;10.30;99.90
3332;DHT22;1678;50.94845400;5.30809100;2022-11-15T06:58:27;10.30;99.90
3332;DHT22;1678;50.94845400;5.30809100;2022-11-15T07:00:58;10.30;99.90
3332;DHT22;1678;50.94845400;5.30809100;2022-11-15T07:03:27;10.30;99.90
3332;DHT22;1678;50.94845400;5.30809100;2022-11-15T07:05:58;10.30;99.90
3332;DHT22;1678;50.94845400;5.30809100;2022-11-15T07:08:33;10.30;99.90
3332;DHT22;1678;50.94845400;5.30809100;2022-11-15T07:11:03;10.20;99.90
3332;DHT22;1678;50.94845400;5.30809100;2022-11-15T07:13:32;10.30;99.90
3332;DHT22;1678;50.94845400;5.30809100;2022-11-15T07:16:02;10.20;99.90
3332;DHT22;1678;50.94845400;5.30809100;2022-11-15T07:18:30;10.20;99.90
3332;DHT22;1678;50.94845400;5.30809100;2022-11-15T07:21:02;10.10;99.90
3332;DHT22;1678;50.94845400;5.30809100;2022-11-15T07:23:30;10.10;99.90
3332;DHT22;1678;50.94845400;5.30809100;2022-11-15T07:26:00;10.00;99.90
3332;DHT22;1678;50.94845400;5.30809100;2022-11-15T07:28:28;10.00;99.90
3332;DHT22;1678;50.94845400;5.30809100;2022-11-15T07:30:56;9.90;99.90
3332;DHT22;1678;50.94845400;5.30809100;2022-11-15T07:33:24;9.90;99.90
3332;DHT22;1678;50.94845400;5.30809100;2022-11-15T07:35:52;10.00;99.90
3332;DHT22;1678;50.94845400;5.30809100;2022-11-15T07:38:22;9.90;99.90
3332;DHT22;1678;50.94845400;5.30809100;2022-11-15T07:40:56;9.90;99.90
3332;DHT22;1678;50.94845400;5.30809100;2022-11-15T07:43:25;9.90;99.90
3332;DHT22;1678;50.94845400;5.30809100;2022-11-15T07:45:54;9.90;99.90
3332;DHT22;1678;50.94845400;5.30809100;2022-11-15T07:48:25;9.90;99.90
3332;DHT22;1678;50.94845400;5.30809100;2022-11-15T07:51:11;9.90;99.90
3332;DHT22;1678;50.94845400;5.30809100;2022-11-15T07:53:42;9.90;99.90
3332;DHT22;1678;50.94845400;5.30809100;2022-11-15T07:56:10;9.90;99.90
3332;DHT22;1678;50.94845400;5.30809100;2022-11-15T07:58:39;10.00;99.90
3332;DHT22;1678;50.94845400;5.30809100;2022-11-15T08:01:08;9.90;99.90
3332;DHT22;1678;50.94845400;5.30809100;2022-11-15T08:03:37;10.00;99.90
3332;DHT22;1678;50.94845400;5.30809100;2022-11-15T08:06:05;10.10;99.90
3332;DHT22;1678;50.94845400;5.30809100;2022-11-15T08:08:33;10.20;99.90
3332;DHT22;1678;50.94845400;5.30809100;2022-11-15T08:11:03;10.20;99.90
3332;DHT22;1678;50.94845400;5.30809100;2022-11-15T08:13:31;10.20;99.90
3332;DHT22;1678;50.94845400;5.30809100;2022-11-15T08:15:59;10.20;99.90
3332;DHT22;1678;50.94845400;5.30809100;2022-11-15T08:18:28;10.20;99.90
3332;DHT22;1678;50.94845400;5.30809100;2022-11-15T08:20:59;10.20;99.90
3332;DHT22;1678;50.94845400;5.30809100;2022-11-15T08:23:27;10.20;99.90
3332;DHT22;1678;50.94845400;5.30809100;2022-11-15T08:26:00;10.20;99.90
3332;DHT22;1678;50.94845400;5.30809100;2022-11-15T08:28:31;10.10;99.90
3332;DHT22;1678;50.94845400;5.30809100;2022-11-15T08:30:59;10.10;99.90
3332;DHT22;1678;50.94845400;5.30809100;2022-11-15T08:33:27;10.00;99.90
3332;DHT22;1678;50.94845400;5.30809100;2022-11-15T08:35:56;10.10;99.90
3332;DHT22;1678;50.94845400;5.30809100;2022-11-15T08:38:24;10.00;99.90
3332;DHT22;1678;50.94845400;5.30809100;2022-11-15T08:40:54;10.00;99.90
3332;DHT22;1678;50.94845400;5.30809100;2022-11-15T08:43:27;10.00;99.90
3332;DHT22;1678;50.94845400;5.30809100;2022-11-15T08:45:57;10.00;99.90
3332;DHT22;1678;50.94845400;5.30809100;2022-11-15T08:48:25;10.00;99.90
3332;DHT22;1678;50.94845400;5.30809100;2022-11-15T08:50:54;10.10;99.90
3332;DHT22;1678;50.94845400;5.30809100;2022-11-15T08:53:22;10.10;99.90
3332;DHT22;1678;50.94845400;5.30809100;2022-11-15T08:55:51;10.00;99.90
3332;DHT22;1678;50.94845400;5.30809100;2022-11-15T08:58:19;9.90;99.90
3332;DHT22;1678;50.94845400;5.30809100;2022-11-15T09:00:47;9.90;99.90
3332;DHT22;1678;50.94845400;5.30809100;2022-11-15T09:03:16;9.80;99.90
3332;DHT22;1678;50.94845400;5.30809100;2022-11-15T09:05:44;9.80;99.90
3332;DHT22;1678;50.94845400;5.30809100;2022-11-15T09:08:12;9.80;99.90
3332;DHT22;1678;50.94845400;5.30809100;2022-11-15T09:11:03;9.80;99.90
3332;DHT22;1678;50.94845400;5.30809100;2022-11-15T09:13:31;9.90;99.90
3332;DHT22;1678;50.94845400;5.30809100;2022-11-15T09:16:00;10.00;99.90
3332;DHT22;1678;50.94845400;5.30809100;2022-11-15T09:18:29;9.90;99.90
3332;DHT22;1678;50.94845400;5.30809100;2022-11-15T09:20:59;9.90;99.90
3332;DHT22;1678;50.94845400;5.30809100;2022-11-15T09:23:28;10.00;99.90
3332;DHT22;1678;50.94845400;5.30809100;2022-11-15T09:26:00;10.00;99.90
3332;DHT22;1678;50.94845400;5.30809100;2022-11-15T09:28:30;9.90;99.90
3332;DHT22;1678;50.94845400;5.30809100;2022-11-15T09:30:59;9.90;99.90
3332;DHT22;1678;50.94845400;5.30809100;2022-11-15T09:33:29;9.90;99.90
3332;DHT22;1678;50.94845400;5.30809100;2022-11-15T09:36:00;9.90;99.90
3332;DHT22;1678;50.94845400;5.30809100;2022-11-15T09:38:28;10.00;99.90
3332;DHT22;1678;50.94845400;5.30809100;2022-11-15T09:41:15;10.10;99.90
3332;DHT22;1678;50.94845400;5.30809100;2022-11-15T09:43:53;10.20;99.90
3332;DHT22;1678;50.94845400;5.30809100;2022-11-15T09:46:31;10.30;99.90
3332;DHT22;1678;50.94845400;5.30809100;2022-11-15T09:49:03;10.40;99.90
3332;DHT22;1678;50.94845400;5.30809100;2022-11-15T09:51:34;10.40;99.90
3332;DHT22;1678;50.94845400;5.30809100;2022-11-15T09:54:10;10.40;99.90
3332;DHT22;1678;50.94845400;5.30809100;2022-11-15T09:57:04;10.60;99.90
3332;DHT22;1678;50.94845400;5.30809100;2022-11-15T09:59:52;10.60;99.90
3332;DHT22;1678;50.94845400;5.30809100;2022-11-15T10:02:51;10.70;99.90
3332;DHT22;1678;50.94845400;5.30809100;2022-11-15T10:05:25;10.80;99.90
3332;DHT22;1678;50.94845400;5.30809100;2022-11-15T10:07:59;10.80;99.90
3332;DHT22;1678;50.94845400;5.30809100;2022-11-15T10:10:35;10.80;99.90
3332;DHT22;1678;50.94845400;5.30809100;2022-11-15T10:13:03;10.80;99.90
3332;DHT22;1678;50.94845400;5.30809100;2022-11-15T10:15:32;10.80;99.90
3332;DHT22;1678;50.94845400;5.30809100;2022-11-15T10:18:13;10.70;99.90
3332;DHT22;1678;50.94845400;5.30809100;2022-11-15T10:20:48;10.60;99.90
3332;DHT22;1678;50.94845400;5.30809100;2022-11-15T10:23:18;10.60;99.90
3332;DHT22;1678;50.94845400;5.30809100;2022-11-15T10:25:51;10.60;99.90
3332;DHT22;1678;50.94845400;5.30809100;2022-11-15T10:28:22;10.70;99.90
3332;DHT22;1678;50.94845400;5.30809100;2022-11-15T10:30:55;10.80;99.90
3332;DHT22;1678;50.94845400;5.30809100;2022-11-15T10:33:26;10.80;99.90
3332;DHT22;1678;50.94845400;5.30809100;2022-11-15T10:36:19;10.80;99.90
3332;DHT22;1678;50.94845400;5.30809100;2022-11-15T10:38:57;10.60;99.90
3332;DHT22;1678;50.94845400;5.30809100;2022-11-15T10:41:36;10.50;99.90
3332;DHT22;1678;50.94845400;5.30809100;2022-11-15T10:44:22;10.40;99.90
3332;DHT22;1678;50.94845400;5.30809100;2022-11-15T10:47:06;10.40;99.90
3332;DHT22;1678;50.94845400;5.30809100;2022-11-15T10:49:34;10.50;99.90
3332;DHT22;1678;50.94845400;5.30809100;2022-11-15T10:52:16;10.70;99.90
3332;DHT22;1678;50.94845400;5.30809100;2022-11-15T10:54:47;10.80;99.90
3332;DHT22;1678;50.94845400;5.30809100;2022-11-15T10:57:18;10.80;99.90
3332;DHT22;1678;50.94845400;5.30809100;2022-11-15T10:59:49;10.90;99.90
3332;DHT22;1678;50.94845400;5.30809100;2022-11-15T11:02:28;11.00;99.90
3332;DHT22;1678;50.94845400;5.30809100;2022-11-15T11:04:57;11.10;99.90
3332;DHT22;1678;50.94845400;5.30809100;2022-11-15T11:07:28;11.10;99.90
3332;DHT22;1678;50.94845400;5.30809100;2022-11-15T11:10:02;11.10;99.90
3332;DHT22;1678;50.94845400;5.30809100;2022-11-15T11:12:48;11.10;99.90
3332;DHT22;1678;50.94845400;5.30809100;2022-11-15T11:15:17;11.20;99.90
3332;DHT22;1678;50.94845400;5.30809100;2022-11-15T11:17:57;11.10;99.90
3332;DHT22;1678;50.94845400;5.30809100;2022-11-15T11:20:30;11.30;99.90
3332;DHT22;1678;50.94845400;5.30809100;2022-11-15T11:23:31;11.10;99.90
3332;DHT22;1678;50.94845400;5.30809100;2022-11-15T11:26:12;11.30;99.90
3332;DHT22;1678;50.94845400;5.30809100;2022-11-15T11:28:48;11.30;99.90
3332;DHT22;1678;50.94845400;5.30809100;2022-11-15T11:31:25;11.40;99.90
3332;DHT22;1678;50.94845400;5.30809100;2022-11-15T11:34:02;11.50;99.90
3332;DHT22;1678;50.94845400;5.30809100;2022-11-15T11:36:39;11.60;99.90
3332;DHT22;1678;50.94845400;5.30809100;2022-11-15T11:39:21;11.40;99.90
3332;DHT22;1678;50.94845400;5.30809100;2022-11-15T11:42:01;11.40;99.90
3332;DHT22;1678;50.94845400;5.30809100;2022-11-15T11:44:36;11.40;99.90
3332;DHT22;1678;50.94845400;5.30809100;2022-11-15T11:47:09;11.30;99.90
3332;DHT22;1678;50.94845400;5.30809100;2022-11-15T11:49:42;11.20;99.90
3332;DHT22;1678;50.94845400;5.30809100;2022-11-15T11:52:17;11.20;99.90
3332;DHT22;1678;50.94845400;5.30809100;2022-11-15T11:54:53;11.30;99.90
3332;DHT22;1678;50.94845400;5.30809100;2022-11-15T11:57:31;11.20;99.90
3332;DHT22;1678;50.94845400;5.30809100;2022-11-15T12:00:04;11.30;99.90
3332;DHT22;1678;50.94845400;5.30809100;2022-11-15T12:02:40;11.50;99.90
3332;DHT22;1678;50.94845400;5.30809100;2022-11-15T12:05:13;11.60;99.90
3332;DHT22;1678;50.94845400;5.30809100;2022-11-15T12:07:44;11.50;99.90
3332;DHT22;1678;50.94845400;5.30809100;2022-11-15T12:10:22;11.60;99.90
3332;DHT22;1678;50.94845400;5.30809100;2022-11-15T12:12:56;11.70;99.90
3332;DHT22;1678;50.94845400;5.30809100;2022-11-15T12:15:29;11.80;99.90
3332;DHT22;1678;50.94845400;5.30809100;2022-11-15T12:18:00;11.80;99.90
3332;DHT22;1678;50.94845400;5.30809100;2022-11-15T12:20:32;11.80;99.90
3332;DHT22;1678;50.94845400;5.30809100;2022-11-15T12:23:05;11.90;99.90
3332;DHT22;1678;50.94845400;5.30809100;2022-11-15T12:25:41;11.80;99.90
3332;DHT22;1678;50.94845400;5.30809100;2022-11-15T12:28:14;11.80;99.90
3332;DHT22;1678;50.94845400;5.30809100;2022-11-15T12:30:49;11.90;99.90
3332;DHT22;1678;50.94845400;5.30809100;2022-11-15T12:33:35;11.80;99.90
3332;DHT22;1678;50.94845400;5.30809100;2022-11-15T12:36:08;11.90;99.90
3332;DHT22;1678;50.94845400;5.30809100;2022-11-15T12:38:58;11.90;99.90
3332;DHT22;1678;50.94845400;5.30809100;2022-11-15T12:41:29;11.90;99.90
3332;DHT22;1678;50.94845400;5.30809100;2022-11-15T12:43:58;11.90;99.90
3332;DHT22;1678;50.94845400;5.30809100;2022-11-15T12:47:02;12.00;99.90
3332;DHT22;1678;50.94845400;5.30809100;2022-11-15T12:49:45;12.10;99.90
3332;DHT22;1678;50.94845400;5.30809100;2022-11-15T12:52:13;12.20;99.90
3332;DHT22;1678;50.94845400;5.30809100;2022-11-15T12:54:59;12.20;99.90
3332;DHT22;1678;50.94845400;5.30809100;2022-11-15T12:57:35;12.20;99.90
3332;DHT22;1678;50.94845400;5.30809100;2022-11-15T13:03:32;12.30;99.90
3332;DHT22;1678;50.94845400;5.30809100;2022-11-15T13:06:08;12.40;99.90
3332;DHT22;1678;50.94845400;5.30809100;2022-11-15T13:08:45;12.30;99.90
3332;DHT22;1678;50.94845400;5.30809100;2022-11-15T13:11:43;12.30;99.90
3332;DHT22;1678;50.94845400;5.30809100;2022-11-15T13:14:50;12.30;99.90
3332;DHT22;1678;50.94845400;5.30809100;2022-11-15T13:17:30;12.30;99.90
3332;DHT22;1678;50.94845400;5.30809100;2022-11-15T13:20:15;12.30;99.90
3332;DHT22;1678;50.94845400;5.30809100;2022-11-15T13:22:46;12.30;99.90
3332;DHT22;1678;50.94845400;5.30809100;2022-11-15T13:28:31;12.30;99.90
3332;DHT22;1678;50.94845400;5.30809100;2022-11-15T13:31:18;12.40;99.90
3332;DHT22;1678;50.94845400;5.30809100;2022-11-15T13:33:47;12.40;99.90
3332;DHT22;1678;50.94845400;5.30809100;2022-11-15T13:36:18;12.40;99.90
3332;DHT22;1678;50.94845400;5.30809100;2022-11-15T13:38:56;12.40;99.90
3332;DHT22;1678;50.94845400;5.30809100;2022-11-15T13:41:26;12.60;99.90
3332;DHT22;1678;50.94845400;5.30809100;2022-11-15T13:43:55;12.60;99.90
3332;DHT22;1678;50.94845400;5.30809100;2022-11-15T13:46:26;12.50;99.90
3332;DHT22;1678;50.94845400;5.30809100;2022-11-15T13:48:57;12.50;99.90
3332;DHT22;1678;50.94845400;5.30809100;2022-11-15T13:51:34;12.60;99.90
3332;DHT22;1678;50.94845400;5.30809100;2022-11-15T13:54:09;12.60;99.90
3332;DHT22;1678;50.94845400;5.30809100;2022-11-15T13:56:43;12.70;99.90
3332;DHT22;1678;50.94845400;5.30809100;2022-11-15T13:59:17;12.70;99.90
3332;DHT22;1678;50.94845400;5.30809100;2022-11-15T14:01:48;12.70;99.90
3332;DHT22;1678;50.94845400;5.30809100;2022-11-15T14:04:19;12.60;99.90
3332;DHT22;1678;50.94845400;5.30809100;2022-11-15T14:06:50;12.60;99.90
3332;DHT22;1678;50.94845400;5.30809100;2022-11-15T14:09:31;12.60;99.90
3332;DHT22;1678;50.94845400;5.30809100;2022-11-15T14:12:02;12.60;99.90
3332;DHT22;1678;50.94845400;5.30809100;2022-11-15T14:14:31;12.50;99.90
3332;DHT22;1678;50.94845400;5.30809100;2022-11-15T14:17:01;12.40;99.90
3332;DHT22;1678;50.94845400;5.30809100;2022-11-15T14:19:39;12.40;99.90
3332;DHT22;1678;50.94845400;5.30809100;2022-11-15T14:22:16;12.40;99.90
3332;DHT22;1678;50.94845400;5.30809100;2022-11-15T14:24:46;12.30;99.90
3332;DHT22;1678;50.94845400;5.30809100;2022-11-15T14:27:20;12.40;99.90